Gisele A — 9HA3562 — position and weather

sailwx.info

Track history (hours):
 
Tides and Currents Weather Stations Pressure Air Temp Water Temp Dewpoint Dewpoint Depression Visibility Wind Speed Wind Dir Waves Ship Positions

Gisele A

Last reported at 2018-Feb-10 06:41 UTC. Time now 2018-Feb-20 00:16 UTC.
Position N 31°15' E 029°41'.
Warning: this ship's position is 9 days out of date.

Length 208 m; draft 9.6 m.

Type: Ship (hazmat cat A). MMSI: 229735000.

Date/timePositionNaut miles runAvg speedWind from/ knotsBaromVisibWave heightAir tempDewpointWater temp
2018-Feb-10 06:41N 31°15' E 029°41'0 0.0
2018-Feb-10 06:05N 31°15' E 029°41'0 0.1
2018-Feb-10 05:59N 31°15' E 029°41'1 0.3
2018-Feb-10 02:44N 31°16' E 029°41'49014.8
2018-Feb-08 17:30N 37°45' E 023°39'11 1.1
2018-Feb-08 07:00N 37°55' E 023°35'4 3.9
2018-Feb-08 06:00N 37°52' E 023°37'1 1.5
2018-Feb-08 05:30N 37°53' E 023°37'1 1.0
2018-Feb-08 05:00N 37°53' E 023°36'5 1.4
2018-Feb-08 01:30N 37°51' E 023°31'0 0.1
2018-Feb-08 01:00N 37°51' E 023°31'0 0.0
2018-Feb-08 00:30N 37°51' E 023°31'0 0.1
2018-Feb-08 00:00N 37°51' E 023°31'0 0.3
2018-Feb-07 23:30N 37°51' E 023°31'0 0.1
2018-Feb-07 23:00N 37°51' E 023°31'0 0.0
2018-Feb-07 22:30N 37°51' E 023°31'0 0.1
2018-Feb-07 22:00N 37°51' E 023°31'0 0.0
2018-Feb-07 21:30N 37°51' E 023°31'  
2018-Feb-05 11:15N 38°43' E 008°53'516.7
2018-Feb-05 10:57N 38°44' E 008°47'31513.9
2018-Feb-04 12:20N 43°09' E 005°03'515.4
2018-Feb-04 12:00N 43°14' E 005°01'815.1
2018-Feb-04 11:30N 43°21' E 004°58'6 3.9
2018-Feb-04 09:59N 43°24' E 004°51'0 0.0
2018-Feb-04 08:59N 43°24' E 004°51'0 0.0
2018-Feb-04 08:29N 43°24' E 004°51'0 0.0
2018-Feb-04 07:56N 43°24' E 004°51'0 0.0
2018-Feb-04 07:29N 43°24' E 004°51'0 0.0
2018-Feb-04 06:59N 43°24' E 004°51'0 0.0
2018-Feb-04 06:29N 43°24' E 004°51'0 0.0
2018-Feb-04 05:59N 43°24' E 004°51'0 0.0
2018-Feb-04 05:29N 43°24' E 004°51'0 0.0
2018-Feb-04 04:59N 43°24' E 004°51'0 0.0
2018-Feb-04 04:29N 43°24' E 004°51'0 0.0
2018-Feb-04 03:59N 43°24' E 004°51'0 0.0
2018-Feb-04 03:26N 43°24' E 004°51'0 0.0
2018-Feb-04 02:59N 43°24' E 004°51'0 0.0
2018-Feb-04 02:29N 43°24' E 004°51'0 0.0
2018-Feb-04 01:59N 43°24' E 004°51'0 0.0
2018-Feb-04 01:29N 43°24' E 004°51'0 0.0
2018-Feb-04 00:59N 43°24' E 004°51'0 0.0
2018-Feb-04 00:29N 43°24' E 004°51'0 0.0
2018-Feb-03 23:59N 43°24' E 004°51'0 0.0
2018-Feb-03 23:29N 43°24' E 004°51'0 0.0
2018-Feb-03 22:59N 43°24' E 004°51'0 0.0
2018-Feb-03 22:29N 43°24' E 004°51'0 0.0
2018-Feb-03 21:59N 43°24' E 004°51'0 0.0
2018-Feb-03 21:30N 43°24' E 004°51'1 3.0
2018-Feb-03 21:00N 43°24' E 004°53'5 9.3
2018-Feb-03 20:30N 43°22' E 004°58'4 8.1
2018-Feb-03 20:00N 43°18' E 005°00'14 9.4
2018-Feb-03 18:30N 43°04' E 004°55'511.1
2018-Feb-03 18:01N 43°01' E 004°49'4 0.2
2018-Feb-02 23:30N 43°03' E 004°53'2 4.0
2018-Feb-02 23:01N 43°04' E 004°55'5 9.2
2018-Feb-02 22:31N 43°01' E 004°51'132 8.1
2018-Feb-02 06:19N 41°27' E 002°46'411.0
2018-Feb-02 05:58N 41°25' E 002°41'511.0
2018-Feb-02 05:30N 41°23' E 002°35'611.1
2018-Feb-02 05:00N 41°21' E 002°28'611.5
2018-Feb-02 04:30N 41°19' E 002°21'611.1
2018-Feb-02 04:00N 41°17' E 002°14'4 7.3
2018-Feb-02 03:30N 41°19' E 002°10'2 4.6
2018-Feb-02 03:00N 41°21' E 002°10'0 0.0
2018-Feb-02 02:29N 41°21' E 002°10'0 0.1
2018-Feb-02 01:59N 41°21' E 002°10'0 0.0
2018-Feb-02 01:29N 41°21' E 002°10'0 0.0
2018-Feb-02 00:59N 41°21' E 002°10'0 0.0
2018-Feb-02 00:26N 41°21' E 002°10'0 0.0
2018-Feb-01 23:59N 41°21' E 002°10'0 0.2
2018-Feb-01 23:29N 41°22' E 002°10'0 0.2
2018-Feb-01 22:59N 41°21' E 002°10'0 0.0
2018-Feb-01 21:59N 41°21' E 002°10'0 0.0
2018-Feb-01 21:29N 41°21' E 002°10'0 0.0
2018-Feb-01 19:29N 41°21' E 002°10'0 0.0
2018-Feb-01 18:59N 41°21' E 002°10'0 0.0
2018-Feb-01 18:29N 41°21' E 002°10'0 0.0
2018-Feb-01 17:59N 41°21' E 002°10'0 0.0
2018-Feb-01 17:29N 41°21' E 002°10'0 0.0
2018-Feb-01 16:56N 41°21' E 002°10'0 0.0
2018-Feb-01 16:29N 41°21' E 002°10'0 0.0
2018-Feb-01 15:59N 41°21' E 002°10'0 0.0
2018-Feb-01 15:29N 41°21' E 002°10'0 0.0
2018-Feb-01 14:59N 41°21' E 002°10'0 0.1
2018-Feb-01 13:31N 41°21' E 002°10'4 7.2
2018-Feb-01 13:01N 41°18' E 002°11'3 5.4
2018-Feb-01 12:30N 41°15' E 002°13'3 5.6
2018-Feb-01 12:00N 41°14' E 002°16'0 0.3
2018-Feb-01 11:00N 41°14' E 002°16'1 2.4
2018-Feb-01 10:31N 41°15' E 002°14'3 6.3
2018-Feb-01 10:01N 41°15' E 002°10'714.9
2018-Feb-01 09:31N 41°09' E 002°04'815.5
2018-Feb-01 09:01N 41°03' E 001°57'815.5
2018-Feb-01 08:30N 40°57' E 001°51'  
Track history (hours):
 
Tides and Currents Weather Stations Pressure Air Temp Water Temp Dewpoint Dewpoint Depression Visibility Wind Speed Wind Dir Waves Ship Positions

Gisele A

Last reported at 2018-Feb-10 06:41 UTC. Time now 2018-Feb-20 00:16 UTC.
Position N 31°15' E 029°41'.
Warning: this ship's position is 9 days out of date.

Length 208 m; draft 9.6 m.

Type: Ship (hazmat cat A). MMSI: 229735000.

Date/timePositionNaut miles runAvg speedWind from/ knotsBaromVisibWave heightAir tempDewpointWater temp
2018-Feb-10 06:41N 31°15' E 029°41'0 0.0
2018-Feb-10 06:05N 31°15' E 029°41'0 0.1
2018-Feb-10 05:59N 31°15' E 029°41'1 0.3
2018-Feb-10 02:44N 31°16' E 029°41'49014.8
2018-Feb-08 17:30N 37°45' E 023°39'11 1.1
2018-Feb-08 07:00N 37°55' E 023°35'4 3.9
2018-Feb-08 06:00N 37°52' E 023°37'1 1.5
2018-Feb-08 05:30N 37°53' E 023°37'1 1.0
2018-Feb-08 05:00N 37°53' E 023°36'5 1.4
2018-Feb-08 01:30N 37°51' E 023°31'0 0.1
2018-Feb-08 01:00N 37°51' E 023°31'0 0.0
2018-Feb-08 00:30N 37°51' E 023°31'0 0.1
2018-Feb-08 00:00N 37°51' E 023°31'0 0.3
2018-Feb-07 23:30N 37°51' E 023°31'0 0.1
2018-Feb-07 23:00N 37°51' E 023°31'0 0.0
2018-Feb-07 22:30N 37°51' E 023°31'0 0.1
2018-Feb-07 22:00N 37°51' E 023°31'0 0.0
2018-Feb-07 21:30N 37°51' E 023°31'  
2018-Feb-05 11:15N 38°43' E 008°53'516.7
2018-Feb-05 10:57N 38°44' E 008°47'31513.9
2018-Feb-04 12:20N 43°09' E 005°03'515.4
2018-Feb-04 12:00N 43°14' E 005°01'815.1
2018-Feb-04 11:30N 43°21' E 004°58'6 3.9
2018-Feb-04 09:59N 43°24' E 004°51'0 0.0
2018-Feb-04 08:59N 43°24' E 004°51'0 0.0
2018-Feb-04 08:29N 43°24' E 004°51'0 0.0
2018-Feb-04 07:56N 43°24' E 004°51'0 0.0
2018-Feb-04 07:29N 43°24' E 004°51'0 0.0
2018-Feb-04 06:59N 43°24' E 004°51'0 0.0
2018-Feb-04 06:29N 43°24' E 004°51'0 0.0
2018-Feb-04 05:59N 43°24' E 004°51'0 0.0
2018-Feb-04 05:29N 43°24' E 004°51'0 0.0
2018-Feb-04 04:59N 43°24' E 004°51'0 0.0
2018-Feb-04 04:29N 43°24' E 004°51'0 0.0
2018-Feb-04 03:59N 43°24' E 004°51'0 0.0
2018-Feb-04 03:26N 43°24' E 004°51'0 0.0
2018-Feb-04 02:59N 43°24' E 004°51'0 0.0
2018-Feb-04 02:29N 43°24' E 004°51'0 0.0
2018-Feb-04 01:59N 43°24' E 004°51'0 0.0
2018-Feb-04 01:29N 43°24' E 004°51'0 0.0
2018-Feb-04 00:59N 43°24' E 004°51'0 0.0
2018-Feb-04 00:29N 43°24' E 004°51'0 0.0
2018-Feb-03 23:59N 43°24' E 004°51'0 0.0
2018-Feb-03 23:29N 43°24' E 004°51'0 0.0
2018-Feb-03 22:59N 43°24' E 004°51'0 0.0
2018-Feb-03 22:29N 43°24' E 004°51'0 0.0
2018-Feb-03 21:59N 43°24' E 004°51'0 0.0
2018-Feb-03 21:30N 43°24' E 004°51'1 3.0
2018-Feb-03 21:00N 43°24' E 004°53'5 9.3
2018-Feb-03 20:30N 43°22' E 004°58'4 8.1
2018-Feb-03 20:00N 43°18' E 005°00'14 9.4
2018-Feb-03 18:30N 43°04' E 004°55'511.1
2018-Feb-03 18:01N 43°01' E 004°49'4 0.2
2018-Feb-02 23:30N 43°03' E 004°53'2 4.0
2018-Feb-02 23:01N 43°04' E 004°55'5 9.2
2018-Feb-02 22:31N 43°01' E 004°51'132 8.1
2018-Feb-02 06:19N 41°27' E 002°46'411.0
2018-Feb-02 05:58N 41°25' E 002°41'511.0
2018-Feb-02 05:30N 41°23' E 002°35'611.1
2018-Feb-02 05:00N 41°21' E 002°28'611.5
2018-Feb-02 04:30N 41°19' E 002°21'611.1
2018-Feb-02 04:00N 41°17' E 002°14'4 7.3
2018-Feb-02 03:30N 41°19' E 002°10'2 4.6
2018-Feb-02 03:00N 41°21' E 002°10'0 0.0
2018-Feb-02 02:29N 41°21' E 002°10'0 0.1
2018-Feb-02 01:59N 41°21' E 002°10'0 0.0
2018-Feb-02 01:29N 41°21' E 002°10'0 0.0
2018-Feb-02 00:59N 41°21' E 002°10'0 0.0
2018-Feb-02 00:26N 41°21' E 002°10'0 0.0
2018-Feb-01 23:59N 41°21' E 002°10'0 0.2
2018-Feb-01 23:29N 41°22' E 002°10'0 0.2
2018-Feb-01 22:59N 41°21' E 002°10'0 0.0
2018-Feb-01 21:59N 41°21' E 002°10'0 0.0
2018-Feb-01 21:29N 41°21' E 002°10'0 0.0
2018-Feb-01 19:29N 41°21' E 002°10'0 0.0
2018-Feb-01 18:59N 41°21' E 002°10'0 0.0
2018-Feb-01 18:29N 41°21' E 002°10'0 0.0
2018-Feb-01 17:59N 41°21' E 002°10'0 0.0
2018-Feb-01 17:29N 41°21' E 002°10'0 0.0
2018-Feb-01 16:56N 41°21' E 002°10'0 0.0
2018-Feb-01 16:29N 41°21' E 002°10'0 0.0
2018-Feb-01 15:59N 41°21' E 002°10'0 0.0
2018-Feb-01 15:29N 41°21' E 002°10'0 0.0
2018-Feb-01 14:59N 41°21' E 002°10'0 0.1
2018-Feb-01 13:31N 41°21' E 002°10'4 7.2
2018-Feb-01 13:01N 41°18' E 002°11'3 5.4
2018-Feb-01 12:30N 41°15' E 002°13'3 5.6
2018-Feb-01 12:00N 41°14' E 002°16'0 0.3
2018-Feb-01 11:00N 41°14' E 002°16'1 2.4
2018-Feb-01 10:31N 41°15' E 002°14'3 6.3
2018-Feb-01 10:01N 41°15' E 002°10'714.9
2018-Feb-01 09:31N 41°09' E 002°04'815.5
2018-Feb-01 09:01N 41°03' E 001°57'815.5
2018-Feb-01 08:30N 40°57' E 001°51'  

Dump ship's entire track history